< < Back
Terminal Aerodrome Forecast


Current Version              Previous Versions:   1  2  3  4  5  6  7  8  9  

Terminal Aerodrome Forecast

691
FTUS42 KCAE 280536
TAFAGS
TAF
KAGS 280536Z 2806/2906 VRB03KT P6SM -SHRA SCT050 BKN100
     FM280900 00000KT 4SM BR BKN120
     FM281300 24006KT P6SM VCSH SCT040 BKN100
     FM281800 34005KT P6SM -SHRA SCT045 BKN120
      TEMPO 2818/2821 3SM TSRA BKN040CB
     FM290200 VRB03KT P6SM VCSH OVC100=

Latest METAR

551
SAUS70 KWBC 281600 RRK
MTRAGS
METAR KAGS 281553Z 05005KT 10SM BKN027 31/23 A2998 RMK AO2 SLP150
T03060233


USA.gov is the U.S. government's official web portal to all federal, state and local government web resources and services.